sensor_id;sensor_type;location;lat;lon;timestamp;temperature;humidity
652;DHT22;310;48.490;9.200;2022-12-29T00:01:51;11.50;33.70
652;DHT22;310;48.490;9.200;2022-12-29T00:04:18;11.70;34.70
652;DHT22;310;48.490;9.200;2022-12-29T00:06:44;11.90;33.60
652;DHT22;310;48.490;9.200;2022-12-29T00:09:13;12.10;33.00
652;DHT22;310;48.490;9.200;2022-12-29T00:11:39;12.20;33.30
652;DHT22;310;48.490;9.200;2022-12-29T00:14:05;12.30;32.90
652;DHT22;310;48.490;9.200;2022-12-29T00:16:49;12.30;32.50
652;DHT22;310;48.490;9.200;2022-12-29T00:19:15;12.00;32.90
652;DHT22;310;48.490;9.200;2022-12-29T00:21:59;12.10;33.00
652;DHT22;310;48.490;9.200;2022-12-29T00:24:46;12.50;32.80
652;DHT22;310;48.490;9.200;2022-12-29T00:27:31;12.60;32.50
652;DHT22;310;48.490;9.200;2022-12-29T00:30:18;12.40;32.10
652;DHT22;310;48.490;9.200;2022-12-29T00:33:19;12.10;32.90
652;DHT22;310;48.490;9.200;2022-12-29T00:39:09;13.10;31.80
652;DHT22;310;48.490;9.200;2022-12-29T00:41:54;12.50;32.60
652;DHT22;310;48.490;9.200;2022-12-29T00:44:38;12.50;33.10
652;DHT22;310;48.490;9.200;2022-12-29T00:47:03;12.40;32.40
652;DHT22;310;48.490;9.200;2022-12-29T00:49:29;12.30;32.80
652;DHT22;310;48.490;9.200;2022-12-29T00:51:57;12.00;33.30
652;DHT22;310;48.490;9.200;2022-12-29T00:54:23;11.90;34.10
652;DHT22;310;48.490;9.200;2022-12-29T00:56:50;11.90;33.20
652;DHT22;310;48.490;9.200;2022-12-29T00:59:16;12.10;33.90
652;DHT22;310;48.490;9.200;2022-12-29T01:01:42;12.10;33.20
652;DHT22;310;48.490;9.200;2022-12-29T01:04:09;12.50;33.40
652;DHT22;310;48.490;9.200;2022-12-29T01:06:37;12.40;32.50
652;DHT22;310;48.490;9.200;2022-12-29T01:09:03;12.10;33.30
652;DHT22;310;48.490;9.200;2022-12-29T01:11:49;12.40;32.90
652;DHT22;310;48.490;9.200;2022-12-29T01:14:15;12.40;33.00
652;DHT22;310;48.490;9.200;2022-12-29T01:16:41;12.80;32.10
652;DHT22;310;48.490;9.200;2022-12-29T01:19:07;13.00;31.60
652;DHT22;310;48.490;9.200;2022-12-29T01:21:32;13.20;32.10
652;DHT22;310;48.490;9.200;2022-12-29T01:23:58;12.90;32.60
652;DHT22;310;48.490;9.200;2022-12-29T01:26:24;12.80;32.40
652;DHT22;310;48.490;9.200;2022-12-29T01:28:49;12.70;31.70
652;DHT22;310;48.490;9.200;2022-12-29T01:31:15;12.60;32.20
652;DHT22;310;48.490;9.200;2022-12-29T01:33:42;12.80;31.90
652;DHT22;310;48.490;9.200;2022-12-29T01:36:13;12.60;31.90
652;DHT22;310;48.490;9.200;2022-12-29T01:38:40;12.40;32.30
652;DHT22;310;48.490;9.200;2022-12-29T01:41:07;12.50;32.80
652;DHT22;310;48.490;9.200;2022-12-29T01:43:47;12.10;32.90
652;DHT22;310;48.490;9.200;2022-12-29T01:46:23;12.10;32.70
652;DHT22;310;48.490;9.200;2022-12-29T01:48:54;12.50;32.30
652;DHT22;310;48.490;9.200;2022-12-29T01:51:22;12.40;33.00
652;DHT22;310;48.490;9.200;2022-12-29T01:53:49;12.90;31.80
652;DHT22;310;48.490;9.200;2022-12-29T01:56:17;13.20;31.60
652;DHT22;310;48.490;9.200;2022-12-29T01:58:47;13.70;30.80
652;DHT22;310;48.490;9.200;2022-12-29T02:01:15;13.30;31.00
652;DHT22;310;48.490;9.200;2022-12-29T02:03:43;13.10;31.50
652;DHT22;310;48.490;9.200;2022-12-29T02:06:22;12.90;32.80
652;DHT22;310;48.490;9.200;2022-12-29T02:08:50;12.90;32.00
652;DHT22;310;48.490;9.200;2022-12-29T02:11:18;13.20;32.00
652;DHT22;310;48.490;9.200;2022-12-29T02:13:44;13.60;33.00
652;DHT22;310;48.490;9.200;2022-12-29T02:22:19;12.90;34.20
652;DHT22;310;48.490;9.200;2022-12-29T02:33:13;13.60;29.20
652;DHT22;310;48.490;9.200;2022-12-29T02:36:09;13.80;28.80
652;DHT22;310;48.490;9.200;2022-12-29T02:41:21;14.10;27.80
652;DHT22;310;48.490;9.200;2022-12-29T02:46:45;14.60;27.20
652;DHT22;310;48.490;9.200;2022-12-29T02:49:18;14.40;27.10
652;DHT22;310;48.490;9.200;2022-12-29T02:52:06;14.40;27.20
652;DHT22;310;48.490;9.200;2022-12-29T02:54:30;14.30;27.20
652;DHT22;310;48.490;9.200;2022-12-29T02:57:14;14.80;26.20
652;DHT22;310;48.490;9.200;2022-12-29T02:59:43;14.90;26.00
652;DHT22;310;48.490;9.200;2022-12-29T03:05:42;14.50;26.60
652;DHT22;310;48.490;9.200;2022-12-29T03:11:03;15.00;26.70
652;DHT22;310;48.490;9.200;2022-12-29T03:13:49;14.70;27.10
652;DHT22;310;48.490;9.200;2022-12-29T03:16:59;14.50;27.00
652;DHT22;310;48.490;9.200;2022-12-29T03:19:47;14.40;26.60
652;DHT22;310;48.490;9.200;2022-12-29T03:22:19;14.10;26.80
652;DHT22;310;48.490;9.200;2022-12-29T03:25:10;14.20;27.00
652;DHT22;310;48.490;9.200;2022-12-29T03:27:43;13.80;27.70
652;DHT22;310;48.490;9.200;2022-12-29T03:30:10;14.10;27.90
652;DHT22;310;48.490;9.200;2022-12-29T03:35:08;14.10;27.80
652;DHT22;310;48.490;9.200;2022-12-29T03:37:41;14.40;27.10
652;DHT22;310;48.490;9.200;2022-12-29T03:40:08;14.10;27.00
652;DHT22;310;48.490;9.200;2022-12-29T03:42:35;14.20;27.10
652;DHT22;310;48.490;9.200;2022-12-29T03:45:04;14.40;27.10
652;DHT22;310;48.490;9.200;2022-12-29T03:47:29;14.30;27.20
652;DHT22;310;48.490;9.200;2022-12-29T03:49:55;14.00;27.40
652;DHT22;310;48.490;9.200;2022-12-29T03:52:21;14.30;27.20
652;DHT22;310;48.490;9.200;2022-12-29T03:54:46;14.50;26.90
652;DHT22;310;48.490;9.200;2022-12-29T03:57:12;14.50;26.90
652;DHT22;310;48.490;9.200;2022-12-29T03:59:38;14.40;27.20
652;DHT22;310;48.490;9.200;2022-12-29T04:02:03;14.60;27.40
652;DHT22;310;48.490;9.200;2022-12-29T04:04:29;15.00;27.40
652;DHT22;310;48.490;9.200;2022-12-29T04:06:54;14.30;27.70
652;DHT22;310;48.490;9.200;2022-12-29T04:09:20;14.40;28.00
652;DHT22;310;48.490;9.200;2022-12-29T04:11:45;14.40;27.40
652;DHT22;310;48.490;9.200;2022-12-29T04:14:11;14.50;27.40
652;DHT22;310;48.490;9.200;2022-12-29T04:16:37;14.30;27.90
652;DHT22;310;48.490;9.200;2022-12-29T04:19:07;14.20;27.90
652;DHT22;310;48.490;9.200;2022-12-29T04:21:33;14.00;28.30
652;DHT22;310;48.490;9.200;2022-12-29T04:23:59;14.00;28.00
652;DHT22;310;48.490;9.200;2022-12-29T04:26:25;14.00;28.30
652;DHT22;310;48.490;9.200;2022-12-29T04:28:52;14.00;28.30
652;DHT22;310;48.490;9.200;2022-12-29T04:31:17;14.40;28.10
652;DHT22;310;48.490;9.200;2022-12-29T04:33:43;14.10;28.40
652;DHT22;310;48.490;9.200;2022-12-29T04:36:08;14.10;28.00
652;DHT22;310;48.490;9.200;2022-12-29T04:38:34;14.10;28.60
652;DHT22;310;48.490;9.200;2022-12-29T04:41:01;13.60;28.90
652;DHT22;310;48.490;9.200;2022-12-29T04:43:27;13.50;29.00
652;DHT22;310;48.490;9.200;2022-12-29T04:45:53;13.80;28.80
652;DHT22;310;48.490;9.200;2022-12-29T04:48:19;13.70;28.80
652;DHT22;310;48.490;9.200;2022-12-29T04:50:47;14.00;30.00
652;DHT22;310;48.490;9.200;2022-12-29T04:53:13;14.60;28.40
652;DHT22;310;48.490;9.200;2022-12-29T04:55:39;14.30;28.00
652;DHT22;310;48.490;9.200;2022-12-29T04:58:05;14.40;27.70
652;DHT22;310;48.490;9.200;2022-12-29T05:00:30;14.50;28.00
652;DHT22;310;48.490;9.200;2022-12-29T05:02:56;14.10;28.00
652;DHT22;310;48.490;9.200;2022-12-29T05:05:22;14.00;28.20
652;DHT22;310;48.490;9.200;2022-12-29T05:07:47;14.10;28.30
652;DHT22;310;48.490;9.200;2022-12-29T05:10:13;13.90;28.30
652;DHT22;310;48.490;9.200;2022-12-29T05:12:38;14.20;28.10
652;DHT22;310;48.490;9.200;2022-12-29T05:15:05;14.40;27.90
652;DHT22;310;48.490;9.200;2022-12-29T05:17:32;14.50;27.40
652;DHT22;310;48.490;9.200;2022-12-29T05:19:58;14.20;27.90
652;DHT22;310;48.490;9.200;2022-12-29T05:22:23;14.00;28.30
652;DHT22;310;48.490;9.200;2022-12-29T05:24:49;14.70;28.00
652;DHT22;310;48.490;9.200;2022-12-29T05:27:14;14.30;28.00
652;DHT22;310;48.490;9.200;2022-12-29T05:29:40;14.60;27.80
652;DHT22;310;48.490;9.200;2022-12-29T05:32:05;14.60;28.00
652;DHT22;310;48.490;9.200;2022-12-29T05:34:31;14.30;27.80
652;DHT22;310;48.490;9.200;2022-12-29T05:36:57;14.10;28.20
652;DHT22;310;48.490;9.200;2022-12-29T05:39:22;14.10;28.40
652;DHT22;310;48.490;9.200;2022-12-29T05:41:48;14.20;28.20
652;DHT22;310;48.490;9.200;2022-12-29T05:44:14;14.10;28.40
652;DHT22;310;48.490;9.200;2022-12-29T05:46:39;14.10;28.70
652;DHT22;310;48.490;9.200;2022-12-29T05:49:05;14.10;28.70
652;DHT22;310;48.490;9.200;2022-12-29T05:51:31;14.20;28.70
652;DHT22;310;48.490;9.200;2022-12-29T05:53:57;14.20;28.70
652;DHT22;310;48.490;9.200;2022-12-29T05:56:22;14.10;29.00
652;DHT22;310;48.490;9.200;2022-12-29T05:58:48;13.90;29.40
652;DHT22;310;48.490;9.200;2022-12-29T06:01:14;14.80;29.20
652;DHT22;310;48.490;9.200;2022-12-29T06:03:39;14.50;28.50
652;DHT22;310;48.490;9.200;2022-12-29T06:06:05;14.60;29.50
652;DHT22;310;48.490;9.200;2022-12-29T06:08:31;14.00;29.40
652;DHT22;310;48.490;9.200;2022-12-29T06:10:56;14.10;29.50
652;DHT22;310;48.490;9.200;2022-12-29T06:13:22;15.00;29.20
652;DHT22;310;48.490;9.200;2022-12-29T06:15:48;14.30;29.40
652;DHT22;310;48.490;9.200;2022-12-29T06:18:15;14.20;29.50
652;DHT22;310;48.490;9.200;2022-12-29T06:20:40;14.30;30.40
652;DHT22;310;48.490;9.200;2022-12-29T06:23:06;14.40;29.50
652;DHT22;310;48.490;9.200;2022-12-29T06:25:31;14.30;29.50
652;DHT22;310;48.490;9.200;2022-12-29T06:27:59;14.70;29.30
652;DHT22;310;48.490;9.200;2022-12-29T06:30:24;14.80;29.10
652;DHT22;310;48.490;9.200;2022-12-29T06:32:50;14.90;28.70
652;DHT22;310;48.490;9.200;2022-12-29T06:35:16;15.20;28.30
652;DHT22;310;48.490;9.200;2022-12-29T06:37:42;14.90;28.70
652;DHT22;310;48.490;9.200;2022-12-29T06:40:09;14.60;28.80
652;DHT22;310;48.490;9.200;2022-12-29T06:42:35;14.60;29.30
652;DHT22;310;48.490;9.200;2022-12-29T06:45:01;14.70;29.20
652;DHT22;310;48.490;9.200;2022-12-29T06:47:26;14.70;28.80
652;DHT22;310;48.490;9.200;2022-12-29T06:49:52;15.30;29.90
652;DHT22;310;48.490;9.200;2022-12-29T06:52:18;14.30;29.60
652;DHT22;310;48.490;9.200;2022-12-29T06:54:43;14.50;29.50
652;DHT22;310;48.490;9.200;2022-12-29T06:57:09;15.00;29.60
652;DHT22;310;48.490;9.200;2022-12-29T06:59:34;14.50;29.30
652;DHT22;310;48.490;9.200;2022-12-29T07:02:00;14.80;29.00
652;DHT22;310;48.490;9.200;2022-12-29T07:04:28;14.70;28.90
652;DHT22;310;48.490;9.200;2022-12-29T07:06:54;14.80;28.90
652;DHT22;310;48.490;9.200;2022-12-29T07:09:20;15.10;28.80
652;DHT22;310;48.490;9.200;2022-12-29T07:11:45;15.40;28.50
652;DHT22;310;48.490;9.200;2022-12-29T07:14:11;15.10;28.80
652;DHT22;310;48.490;9.200;2022-12-29T07:16:37;15.30;28.20
652;DHT22;310;48.490;9.200;2022-12-29T07:19:03;15.20;28.30
652;DHT22;310;48.490;9.200;2022-12-29T07:21:29;15.20;29.00
652;DHT22;310;48.490;9.200;2022-12-29T07:23:55;15.00;29.00
652;DHT22;310;48.490;9.200;2022-12-29T07:26:20;14.90;28.90
652;DHT22;310;48.490;9.200;2022-12-29T07:28:46;14.80;29.00
652;DHT22;310;48.490;9.200;2022-12-29T07:31:16;14.80;29.10
652;DHT22;310;48.490;9.200;2022-12-29T07:33:42;14.80;29.40
652;DHT22;310;48.490;9.200;2022-12-29T07:36:09;15.40;28.20
652;DHT22;310;48.490;9.200;2022-12-29T07:38:35;15.00;29.00
652;DHT22;310;48.490;9.200;2022-12-29T07:41:00;15.00;29.00
652;DHT22;310;48.490;9.200;2022-12-29T07:43:26;14.70;29.20
652;DHT22;310;48.490;9.200;2022-12-29T07:45:52;14.70;29.30
652;DHT22;310;48.490;9.200;2022-12-29T07:48:17;15.00;28.90
652;DHT22;310;48.490;9.200;2022-12-29T07:50:43;15.20;28.50
652;DHT22;310;48.490;9.200;2022-12-29T07:53:09;15.10;28.70
652;DHT22;310;48.490;9.200;2022-12-29T07:55:34;15.00;28.90
652;DHT22;310;48.490;9.200;2022-12-29T07:58:00;15.10;28.60
652;DHT22;310;48.490;9.200;2022-12-29T08:00:26;15.20;28.50
652;DHT22;310;48.490;9.200;2022-12-29T08:02:51;15.20;28.30
652;DHT22;310;48.490;9.200;2022-12-29T08:05:17;15.40;28.10
652;DHT22;310;48.490;9.200;2022-12-29T08:07:44;15.60;27.60
652;DHT22;310;48.490;9.200;2022-12-29T08:10:10;15.60;27.40
652;DHT22;310;48.490;9.200;2022-12-29T08:12:38;15.40;27.90
652;DHT22;310;48.490;9.200;2022-12-29T08:15:04;15.40;27.60
652;DHT22;310;48.490;9.200;2022-12-29T08:17:30;15.20;27.50
652;DHT22;310;48.490;9.200;2022-12-29T08:19:56;15.20;27.80
652;DHT22;310;48.490;9.200;2022-12-29T08:22:22;15.00;27.70
652;DHT22;310;48.490;9.200;2022-12-29T08:24:48;15.00;27.60
652;DHT22;310;48.490;9.200;2022-12-29T08:27:14;15.10;27.50
652;DHT22;310;48.490;9.200;2022-12-29T08:29:39;15.10;27.90
652;DHT22;310;48.490;9.200;2022-12-29T08:32:05;15.40;27.40
652;DHT22;310;48.490;9.200;2022-12-29T08:34:32;15.70;26.80
652;DHT22;310;48.490;9.200;2022-12-29T08:36:58;16.00;27.00
652;DHT22;310;48.490;9.200;2022-12-29T08:39:24;15.90;26.60
652;DHT22;310;48.490;9.200;2022-12-29T08:41:49;16.10;26.10
652;DHT22;310;48.490;9.200;2022-12-29T08:44:15;15.90;26.80
652;DHT22;310;48.490;9.200;2022-12-29T08:46:41;16.00;26.50
652;DHT22;310;48.490;9.200;2022-12-29T08:49:06;16.10;26.20
652;DHT22;310;48.490;9.200;2022-12-29T08:51:32;16.40;26.00
652;DHT22;310;48.490;9.200;2022-12-29T08:53:58;16.30;25.90
652;DHT22;310;48.490;9.200;2022-12-29T08:56:24;16.30;25.90
652;DHT22;310;48.490;9.200;2022-12-29T08:58:51;16.20;26.30
652;DHT22;310;48.490;9.200;2022-12-29T09:01:16;16.20;26.80
652;DHT22;310;48.490;9.200;2022-12-29T09:03:42;16.00;27.10
652;DHT22;310;48.490;9.200;2022-12-29T09:06:08;15.70;27.30
652;DHT22;310;48.490;9.200;2022-12-29T09:08:34;15.70;27.80
652;DHT22;310;48.490;9.200;2022-12-29T09:11:11;15.70;27.80
652;DHT22;310;48.490;9.200;2022-12-29T09:13:36;15.60;27.60
652;DHT22;310;48.490;9.200;2022-12-29T09:16:02;15.20;28.30
652;DHT22;310;48.490;9.200;2022-12-29T09:18:28;15.10;28.80
652;DHT22;310;48.490;9.200;2022-12-29T09:21:04;15.20;28.80
652;DHT22;310;48.490;9.200;2022-12-29T09:23:30;14.90;29.80
652;DHT22;310;48.490;9.200;2022-12-29T09:25:57;15.00;29.60
652;DHT22;310;48.490;9.200;2022-12-29T09:28:22;15.20;29.60
652;DHT22;310;48.490;9.200;2022-12-29T09:30:49;15.20;29.40
652;DHT22;310;48.490;9.200;2022-12-29T09:33:15;15.10;29.70
652;DHT22;310;48.490;9.200;2022-12-29T09:35:45;15.10;29.50
652;DHT22;310;48.490;9.200;2022-12-29T09:38:11;15.40;29.20
652;DHT22;310;48.490;9.200;2022-12-29T09:40:38;15.70;28.90
652;DHT22;310;48.490;9.200;2022-12-29T09:43:18;15.70;28.50
652;DHT22;310;48.490;9.200;2022-12-29T09:45:54;15.80;28.40
652;DHT22;310;48.490;9.200;2022-12-29T09:48:26;15.70;29.10
652;DHT22;310;48.490;9.200;2022-12-29T09:50:56;15.70;28.80
652;DHT22;310;48.490;9.200;2022-12-29T09:53:31;15.90;28.50
652;DHT22;310;48.490;9.200;2022-12-29T09:56:01;16.20;28.10
652;DHT22;310;48.490;9.200;2022-12-29T09:58:37;16.00;28.50
652;DHT22;310;48.490;9.200;2022-12-29T10:01:07;15.70;28.70
652;DHT22;310;48.490;9.200;2022-12-29T10:03:49;15.60;28.80
652;DHT22;310;48.490;9.200;2022-12-29T10:07:06;15.80;28.90
652;DHT22;310;48.490;9.200;2022-12-29T10:09:25;16.00;28.40
652;DHT22;310;48.490;9.200;2022-12-29T10:25:30;15.70;29.20
652;DHT22;310;48.490;9.200;2022-12-29T10:27:59;15.70;29.10
652;DHT22;310;48.490;9.200;2022-12-29T10:30:28;16.00;28.90
652;DHT22;310;48.490;9.200;2022-12-29T10:32:58;16.00;28.70
652;DHT22;310;48.490;9.200;2022-12-29T10:35:26;15.50;29.70
652;DHT22;310;48.490;9.200;2022-12-29T10:37:59;15.60;29.80
652;DHT22;310;48.490;9.200;2022-12-29T10:40:49;15.40;30.00
652;DHT22;310;48.490;9.200;2022-12-29T10:43:33;14.90;30.50
652;DHT22;310;48.490;9.200;2022-12-29T10:46:08;14.60;32.10
652;DHT22;310;48.490;9.200;2022-12-29T10:48:35;14.90;31.40
652;DHT22;310;48.490;9.200;2022-12-29T10:51:04;15.00;31.30
652;DHT22;310;48.490;9.200;2022-12-29T10:53:40;14.60;32.60
652;DHT22;310;48.490;9.200;2022-12-29T10:56:31;14.50;32.20
652;DHT22;310;48.490;9.200;2022-12-29T10:59:01;14.80;32.60
652;DHT22;310;48.490;9.200;2022-12-29T11:01:34;15.00;32.00
652;DHT22;310;48.490;9.200;2022-12-29T11:04:23;15.00;31.90
652;DHT22;310;48.490;9.200;2022-12-29T11:06:51;15.20;31.70
652;DHT22;310;48.490;9.200;2022-12-29T11:09:29;14.90;31.70
652;DHT22;310;48.490;9.200;2022-12-29T11:11:55;14.90;32.40
652;DHT22;310;48.490;9.200;2022-12-29T11:14:29;15.00;32.60
652;DHT22;310;48.490;9.200;2022-12-29T11:16:59;14.60;34.40
652;DHT22;310;48.490;9.200;2022-12-29T11:19:28;15.10;33.80
652;DHT22;310;48.490;9.200;2022-12-29T11:21:54;14.90;34.80
652;DHT22;310;48.490;9.200;2022-12-29T11:24:25;15.10;34.60
652;DHT22;310;48.490;9.200;2022-12-29T11:26:53;14.50;38.10
652;DHT22;310;48.490;9.200;2022-12-29T11:29:36;14.20;39.40
652;DHT22;310;48.490;9.200;2022-12-29T11:32:12;14.10;39.90
652;DHT22;310;48.490;9.200;2022-12-29T11:34:38;14.80;38.60
652;DHT22;310;48.490;9.200;2022-12-29T11:37:09;15.30;39.00
652;DHT22;310;48.490;9.200;2022-12-29T11:40:03;15.10;38.20
652;DHT22;310;48.490;9.200;2022-12-29T11:42:42;14.80;38.10
652;DHT22;310;48.490;9.200;2022-12-29T11:47:49;14.60;38.30
652;DHT22;310;48.490;9.200;2022-12-29T11:50:30;14.60;38.60
652;DHT22;310;48.490;9.200;2022-12-29T11:55:36;15.70;35.70
652;DHT22;310;48.490;9.200;2022-12-29T11:58:03;16.10;34.80
652;DHT22;310;48.490;9.200;2022-12-29T12:00:32;16.30;33.30
652;DHT22;310;48.490;9.200;2022-12-29T12:03:19;16.10;34.20
652;DHT22;310;48.490;9.200;2022-12-29T12:06:00;15.80;34.10
652;DHT22;310;48.490;9.200;2022-12-29T12:11:18;15.00;36.60
652;DHT22;310;48.490;9.200;2022-12-29T12:14:04;14.20;39.10
652;DHT22;310;48.490;9.200;2022-12-29T12:16:36;14.10;39.30
652;DHT22;310;48.490;9.200;2022-12-29T12:19:38;14.20;40.20
652;DHT22;310;48.490;9.200;2022-12-29T12:22:15;14.40;40.30
652;DHT22;310;48.490;9.200;2022-12-29T12:24:58;15.00;40.80
652;DHT22;310;48.490;9.200;2022-12-29T12:27:29;15.60;37.60
652;DHT22;310;48.490;9.200;2022-12-29T12:30:16;14.70;40.10
652;DHT22;310;48.490;9.200;2022-12-29T12:43:27;15.10;41.00
652;DHT22;310;48.490;9.200;2022-12-29T12:51:53;14.50;41.80
652;DHT22;310;48.490;9.200;2022-12-29T12:57:20;15.00;40.80
652;DHT22;310;48.490;9.200;2022-12-29T13:00:21;15.30;39.50
652;DHT22;310;48.490;9.200;2022-12-29T13:11:14;15.00;39.40
652;DHT22;310;48.490;9.200;2022-12-29T13:14:10;14.80;39.70
652;DHT22;310;48.490;9.200;2022-12-29T13:17:21;14.80;39.80
652;DHT22;310;48.490;9.200;2022-12-29T13:20:16;14.70;40.30
652;DHT22;310;48.490;9.200;2022-12-29T13:23:10;14.60;40.00
652;DHT22;310;48.490;9.200;2022-12-29T13:28:47;14.80;40.10
652;DHT22;310;48.490;9.200;2022-12-29T13:34:05;15.20;39.70
652;DHT22;310;48.490;9.200;2022-12-29T13:36:42;15.30;39.30
652;DHT22;310;48.490;9.200;2022-12-29T13:39:23;15.20;39.10
652;DHT22;310;48.490;9.200;2022-12-29T13:41:52;15.60;37.60
652;DHT22;310;48.490;9.200;2022-12-29T13:44:26;15.70;37.70
652;DHT22;310;48.490;9.200;2022-12-29T13:46:54;15.70;37.20
652;DHT22;310;48.490;9.200;2022-12-29T13:49:22;15.60;37.60
652;DHT22;310;48.490;9.200;2022-12-29T13:51:58;15.50;37.10
652;DHT22;310;48.490;9.200;2022-12-29T13:56:59;16.00;35.90
652;DHT22;310;48.490;9.200;2022-12-29T14:07:47;15.80;36.70
652;DHT22;310;48.490;9.200;2022-12-29T14:10:34;15.70;36.30
652;DHT22;310;48.490;9.200;2022-12-29T14:13:33;16.00;35.70
652;DHT22;310;48.490;9.200;2022-12-29T14:16:02;15.50;35.50
652;DHT22;310;48.490;9.200;2022-12-29T14:18:32;15.40;36.00
652;DHT22;310;48.490;9.200;2022-12-29T14:21:21;15.40;35.90
652;DHT22;310;48.490;9.200;2022-12-29T14:23:50;15.90;34.80
652;DHT22;310;48.490;9.200;2022-12-29T14:26:18;15.80;34.90
652;DHT22;310;48.490;9.200;2022-12-29T14:29:41;15.50;36.10
652;DHT22;310;48.490;9.200;2022-12-29T14:32:01;15.80;34.60
652;DHT22;310;48.490;9.200;2022-12-29T14:34:29;16.00;33.60
652;DHT22;310;48.490;9.200;2022-12-29T14:37:02;15.90;33.80
652;DHT22;310;48.490;9.200;2022-12-29T14:39:39;15.70;33.50
652;DHT22;310;48.490;9.200;2022-12-29T14:42:15;15.80;33.60
652;DHT22;310;48.490;9.200;2022-12-29T14:44:55;15.80;32.90
652;DHT22;310;48.490;9.200;2022-12-29T14:49:57;15.70;33.20
652;DHT22;310;48.490;9.200;2022-12-29T14:52:29;15.50;33.80
652;DHT22;310;48.490;9.200;2022-12-29T14:54:58;15.60;33.50
652;DHT22;310;48.490;9.200;2022-12-29T14:57:29;15.70;33.00
652;DHT22;310;48.490;9.200;2022-12-29T15:00:22;15.80;33.50
652;DHT22;310;48.490;9.200;2022-12-29T15:03:06;15.90;32.80
652;DHT22;310;48.490;9.200;2022-12-29T15:05:53;15.50;33.20
652;DHT22;310;48.490;9.200;2022-12-29T15:08:26;15.60;33.40
652;DHT22;310;48.490;9.200;2022-12-29T15:11:04;15.60;33.30
652;DHT22;310;48.490;9.200;2022-12-29T15:13:40;15.60;33.30
652;DHT22;310;48.490;9.200;2022-12-29T15:16:32;15.70;33.20
652;DHT22;310;48.490;9.200;2022-12-29T15:18:59;15.80;32.60
652;DHT22;310;48.490;9.200;2022-12-29T15:21:36;15.80;32.70
652;DHT22;310;48.490;9.200;2022-12-29T15:24:05;15.60;33.20
652;DHT22;310;48.490;9.200;2022-12-29T15:27:02;15.30;33.10
652;DHT22;310;48.490;9.200;2022-12-29T15:29:40;15.30;33.30
652;DHT22;310;48.490;9.200;2022-12-29T15:34:47;15.00;34.00
652;DHT22;310;48.490;9.200;2022-12-29T15:37:25;15.40;33.30
652;DHT22;310;48.490;9.200;2022-12-29T15:39:52;15.60;32.90
652;DHT22;310;48.490;9.200;2022-12-29T15:44:50;15.60;32.20
652;DHT22;310;48.490;9.200;2022-12-29T15:47:24;15.80;32.10
652;DHT22;310;48.490;9.200;2022-12-29T15:49:53;15.50;32.70
652;DHT22;310;48.490;9.200;2022-12-29T15:52:25;14.90;33.90
652;DHT22;310;48.490;9.200;2022-12-29T15:54:52;14.90;33.20
652;DHT22;310;48.490;9.200;2022-12-29T15:57:42;14.60;33.90
652;DHT22;310;48.490;9.200;2022-12-29T16:00:46;14.60;33.90
652;DHT22;310;48.490;9.200;2022-12-29T16:03:13;14.60;34.50
652;DHT22;310;48.490;9.200;2022-12-29T16:05:41;14.50;34.40
652;DHT22;310;48.490;9.200;2022-12-29T16:10:50;14.60;34.30
652;DHT22;310;48.490;9.200;2022-12-29T16:13:38;14.70;33.90
652;DHT22;310;48.490;9.200;2022-12-29T16:16:21;14.80;33.80
652;DHT22;310;48.490;9.200;2022-12-29T16:18:51;14.70;33.90
652;DHT22;310;48.490;9.200;2022-12-29T16:21:31;15.10;33.40
652;DHT22;310;48.490;9.200;2022-12-29T16:24:14;15.40;32.40
652;DHT22;310;48.490;9.200;2022-12-29T16:26:47;15.30;32.30
652;DHT22;310;48.490;9.200;2022-12-29T16:29:19;15.40;32.10
652;DHT22;310;48.490;9.200;2022-12-29T16:31:55;15.00;32.60
652;DHT22;310;48.490;9.200;2022-12-29T16:37:30;15.00;32.70
652;DHT22;310;48.490;9.200;2022-12-29T16:39:56;15.10;32.70
652;DHT22;310;48.490;9.200;2022-12-29T16:50:37;14.80;32.90
652;DHT22;310;48.490;9.200;2022-12-29T16:53:26;14.60;33.40
652;DHT22;310;48.490;9.200;2022-12-29T16:55:57;14.10;34.50
652;DHT22;310;48.490;9.200;2022-12-29T16:58:29;14.30;34.60
652;DHT22;310;48.490;9.200;2022-12-29T17:00:59;14.90;32.60
652;DHT22;310;48.490;9.200;2022-12-29T17:03:42;14.70;32.80
652;DHT22;310;48.490;9.200;2022-12-29T17:06:16;14.10;34.10
652;DHT22;310;48.490;9.200;2022-12-29T17:08:49;13.80;35.20
652;DHT22;310;48.490;9.200;2022-12-29T17:11:35;14.10;34.80
652;DHT22;310;48.490;9.200;2022-12-29T17:17:31;14.30;34.60
652;DHT22;310;48.490;9.200;2022-12-29T17:20:33;14.40;34.60
652;DHT22;310;48.490;9.200;2022-12-29T17:22:59;14.70;33.90
652;DHT22;310;48.490;9.200;2022-12-29T17:25:36;14.70;33.60
652;DHT22;310;48.490;9.200;2022-12-29T17:28:26;14.00;35.40
652;DHT22;310;48.490;9.200;2022-12-29T17:31:01;14.20;35.50
652;DHT22;310;48.490;9.200;2022-12-29T17:33:35;14.70;34.40
652;DHT22;310;48.490;9.200;2022-12-29T17:36:04;14.90;33.20
652;DHT22;310;48.490;9.200;2022-12-29T17:38:37;14.90;33.70
652;DHT22;310;48.490;9.200;2022-12-29T17:41:11;15.10;33.00
652;DHT22;310;48.490;9.200;2022-12-29T17:43:39;14.90;32.90
652;DHT22;310;48.490;9.200;2022-12-29T17:46:09;14.90;33.10
652;DHT22;310;48.490;9.200;2022-12-29T17:48:35;14.70;33.30
652;DHT22;310;48.490;9.200;2022-12-29T17:51:04;15.00;33.00
652;DHT22;310;48.490;9.200;2022-12-29T17:53:30;14.70;33.20
652;DHT22;310;48.490;9.200;2022-12-29T17:55:55;14.60;34.00
652;DHT22;310;48.490;9.200;2022-12-29T17:58:37;14.80;33.40
652;DHT22;310;48.490;9.200;2022-12-29T18:01:04;14.70;33.10
652;DHT22;310;48.490;9.200;2022-12-29T18:03:39;14.50;34.00
652;DHT22;310;48.490;9.200;2022-12-29T18:06:10;14.60;34.10
652;DHT22;310;48.490;9.200;2022-12-29T18:08:47;14.80;33.40
652;DHT22;310;48.490;9.200;2022-12-29T18:11:25;14.80;33.60
652;DHT22;310;48.490;9.200;2022-12-29T18:13:54;14.70;33.20
652;DHT22;310;48.490;9.200;2022-12-29T18:16:23;14.70;32.90
652;DHT22;310;48.490;9.200;2022-12-29T18:18:49;14.80;32.80
652;DHT22;310;48.490;9.200;2022-12-29T18:21:21;15.00;33.50
652;DHT22;310;48.490;9.200;2022-12-29T18:23:48;14.60;33.00
652;DHT22;310;48.490;9.200;2022-12-29T18:26:22;14.90;33.00
652;DHT22;310;48.490;9.200;2022-12-29T18:28:51;15.00;33.60
652;DHT22;310;48.490;9.200;2022-12-29T18:31:26;15.00;32.00
652;DHT22;310;48.490;9.200;2022-12-29T18:33:55;15.10;33.20
652;DHT22;310;48.490;9.200;2022-12-29T18:36:21;15.20;32.30
652;DHT22;310;48.490;9.200;2022-12-29T18:38:47;15.40;31.80
652;DHT22;310;48.490;9.200;2022-12-29T18:41:27;15.00;31.50
652;DHT22;310;48.490;9.200;2022-12-29T18:44:02;14.90;31.80
652;DHT22;310;48.490;9.200;2022-12-29T18:46:35;14.80;32.40
652;DHT22;310;48.490;9.200;2022-12-29T18:49:05;14.60;32.10
652;DHT22;310;48.490;9.200;2022-12-29T18:51:37;14.60;32.60
652;DHT22;310;48.490;9.200;2022-12-29T18:54:27;14.70;32.30
652;DHT22;310;48.490;9.200;2022-12-29T18:57:11;15.00;31.50
652;DHT22;310;48.490;9.200;2022-12-29T18:59:39;15.10;31.30
652;DHT22;310;48.490;9.200;2022-12-29T19:02:05;15.00;31.80
652;DHT22;310;48.490;9.200;2022-12-29T19:04:37;14.60;32.60
652;DHT22;310;48.490;9.200;2022-12-29T19:07:16;14.60;32.70